Wetterdaten: Woche 29.03.10 - 04.04.10 (KW13)
Datum Zeit Temp. A. Feuchte A. Luftdruck Regen Wind Richtung Taupunkt Windchill Windben
01.04.2010 06:00 2,5 C 90 % 1009,8 hPa 3,6 l/m 0,0 km/h S-SO 1,0 C 2,5 C 0,0 km/h
01.04.2010 07:00 2,5 C 91 % 1010,5 hPa 0,0 l/m 0,0 km/h W 1,2 C 2,5 C 0,0 km/h
01.04.2010 08:00 4,3 C 90 % 1011,0 hPa 0,0 l/m 0,0 km/h W-SW 2,8 C 4,3 C 0,0 km/h
01.04.2010 09:00 5,6 C 83 % 1011,6 hPa 0,0 l/m 3,2 km/h W 2,9 C 5,6 C 1,8 km/h
01.04.2010 10:00 6,8 C 77 % 1012,3 hPa 0,0 l/m 20,7 km/h SW 3,1 C -1,1 C 11,5 km/h
01.04.2010 11:00 7,7 C 72 % 1013,0 hPa 0,0 l/m 40,8 km/h W-SW 3,0 C -4,6 C 22,7 km/h
01.04.2010 12:00 9,2 C 66 % 1013,5 hPa 0,0 l/m 41,5 km/h W-SW 3,2 C -2,5 C 23,0 km/h
01.04.2010 13:00 10,6 C 60 % 1013,9 hPa 0,0 l/m 31,1 km/h SW 3,2 C 1,3 C 17,3 km/h
01.04.2010 14:00 10,9 C 54 % 1013,5 hPa 0,0 l/m 23,3 km/h W-SW 2,0 C 3,5 C 13,0 km/h
01.04.2010 15:00 13,9 C 46 % 1013,2 hPa 0,0 l/m 22,0 km/h W 2,5 C 7,8 C 12,2 km/h
01.04.2010 16:00 11,6 C 43 % 1013,2 hPa 0,0 l/m 5,2 km/h NW -0,5 C 11,6 C 2,9 km/h
01.04.2010 17:00 10,7 C 50 % 1013,9 hPa 0,0 l/m 3,2 km/h W 0,7 C 10,7 C 1,8 km/h
01.04.2010 18:00 7,3 C 61 % 1014,7 hPa 0,0 l/m 0,0 km/h SW 0,3 C 7,3 C 0,0 km/h
01.04.2010 19:00 4,1 C 82 % 1016,2 hPa 2,1 l/m 11,7 km/h SO 1,3 C -0,1 C 6,5 km/h
01.04.2010 20:00 3,3 C 83 % 1016,4 hPa 0,0 l/m 2,6 km/h O-SO 0,7 C 3,3 C 1,4 km/h
01.04.2010 21:00 1,4 C 87 % 1016,7 hPa 0,0 l/m 0,0 km/h SO -0,5 C 1,4 C 0,0 km/h
01.04.2010 22:00 0,7 C 89 % 1017,1 hPa 0,0 l/m 0,0 km/h SO -0,9 C 0,7 C 0,0 km/h
01.04.2010 23:00 0,2 C 89 % 1017,2 hPa 0,0 l/m 0,0 km/h O-NO -1,4 C 0,2 C 0,0 km/h
02.04.2010 00:00 -0,2 C 90 % 1017,3 hPa 0,0 l/m 0,0 km/h O-NO -1,6 C -0,2 C 0,0 km/h
02.04.2010 01:00 -0,7 C 90 % 1017,3 hPa 0,0 l/m 0,0 km/h NO -2,1 C -0,7 C 0,0 km/h
02.04.2010 02:00 -0,7 C 91 % 1016,8 hPa 0,0 l/m 0,0 km/h SO -2,0 C -0,7 C 0,0 km/h
02.04.2010 03:00 -0,8 C 91 % 1016,5 hPa 0,0 l/m 0,0 km/h O-SO -2,1 C -0,8 C 0,0 km/h
02.04.2010 04:00 -1,4 C 91 % 1016,3 hPa 0,0 l/m 0,0 km/h O-SO -2,7 C -1,4 C 0,0 km/h
02.04.2010 05:00 -1,5 C 91 % 1016,0 hPa 0,0 l/m 0,0 km/h O-SO -2,8 C -1,5 C 0,0 km/h
02.04.2010 06:00 -0,9 C 92 % 1015,6 hPa 0,0 l/m 1,9 km/h O-SO -2,0 C -0,9 C 1,1 km/h
02.04.2010 07:00 -0,2 C 92 % 1015,8 hPa 0,0 l/m 0,0 km/h SO -1,3 C -0,2 C 0,0 km/h
02.04.2010 08:00 2,0 C 93 % 1015,6 hPa 0,0 l/m 0,0 km/h O-SO 1,0 C 2,0 C 0,0 km/h
02.04.2010 09:00 7,3 C 86 % 1015,8 hPa 0,0 l/m 0,0 km/h S 5,1 C 7,3 C 0,0 km/h
02.04.2010 10:00 10,2 C 69 % 1015,4 hPa 0,0 l/m 0,0 km/h NW 4,8 C 10,2 C 0,0 km/h
02.04.2010 11:00 12,6 C 58 % 1015,0 hPa 0,0 l/m 3,9 km/h W-NW 4,6 C 12,6 C 2,2 km/h
02.04.2010 12:00 15,2 C 47 % 1014,6 hPa 0,0 l/m 1,9 km/h W 4,0 C 15,2 C 1,1 km/h
02.04.2010 13:00 14,4 C 46 % 1014,0 hPa 0,0 l/m 3,2 km/h W-SW 2,9 C 14,4 C 1,8 km/h
02.04.2010 14:00 12,9 C 47 % 1013,2 hPa 0,0 l/m 9,1 km/h W 1,9 C 11,3 C 5,0 km/h
02.04.2010 15:00 13,0 C 48 % 1012,5 hPa 0,0 l/m 3,2 km/h S-SO 2,3 C 13,0 C 1,8 km/h
02.04.2010 16:00 15,8 C 43 % 1011,7 hPa 0,0 l/m 20,7 km/h S 3,3 C 10,6 C 11,5 km/h
02.04.2010 17:00 12,3 C 49 % 1011,2 hPa 0,0 l/m 3,9 km/h S 1,9 C 12,3 C 2,2 km/h
02.04.2010 18:00 11,9 C 52 % 1011,0 hPa 0,0 l/m 9,1 km/h S-SO 2,4 C 10,2 C 5,0 km/h
02.04.2010 19:00 8,6 C 62 % 1010,9 hPa 0,0 l/m 1,9 km/h S-SO 1,7 C 8,6 C 1,1 km/h
02.04.2010 20:00 8,9 C 60 % 1010,6 hPa 0,0 l/m 3,2 km/h S 1,6 C 8,9 C 1,8 km/h
02.04.2010 21:00 9,5 C 57 % 1010,9 hPa 0,0 l/m 17,5 km/h W-SW 1,4 C 3,5 C 9,7 km/h
02.04.2010 22:00 8,9 C 69 % 1012,0 hPa 0,0 l/m 24,0 km/h S-SO 3,5 C 0,6 C 13,3 km/h
02.04.2010 23:00 7,1 C 82 % 1012,4 hPa 0,4 l/m 0,0 km/h SW 4,2 C 7,1 C 0,0 km/h
03.04.2010 00:00 7,2 C 86 % 1012,5 hPa 0,4 l/m 26,6 km/h SO 5,0 C -2,4 C 14,8 km/h
03.04.2010 01:00 6,6 C 83 % 1012,3 hPa 0,4 l/m 0,0 km/h O-NO 3,9 C 6,6 C 0,0 km/h
03.04.2010 02:00 6,3 C 87 % 1012,0 hPa 0,0 l/m 0,0 km/h SW 4,3 C 6,3 C 0,0 km/h
03.04.2010 03:00 7,9 C 80 % 1012,1 hPa 0,0 l/m 20,1 km/h S-SW 4,7 C 0,5 C 11,2 km/h
03.04.2010 04:00 7,6 C 80 % 1012,2 hPa 0,0 l/m 24,6 km/h S 4,4 C -1,3 C 13,7 km/h
03.04.2010 05:00 7,1 C 80 % 1012,1 hPa 0,0 l/m 1,3 km/h W-SW 3,9 C 7,1 C 0,7 km/h
03.04.2010 06:00 7,9 C 77 % 1012,2 hPa 0,0 l/m 18,1 km/h S-SW 4,1 C 1,3 C 10,1 km/h
03.04.2010 07:00 7,9 C 74 % 1012,0 hPa 0,0 l/m 14,3 km/h S 3,6 C 2,9 C 7,9 km/h
03.04.2010 08:00 8,1 C 77 % 1011,7 hPa 0,0 l/m 3,2 km/h W 4,3 C 8,1 C 1,8 km/h
03.04.2010 09:00 10,8 C 69 % 1011,4 hPa 0,0 l/m 0,0 km/h W 5,3 C 10,8 C 0,0 km/h
03.04.2010 10:00 13,0 C 61 % 1011,8 hPa 0,0 l/m 33,7 km/h SW 5,7 C 4,2 C 18,7 km/h
03.04.2010 11:00 8,8 C 78 % 1012,3 hPa 0,0 l/m 26,6 km/h W-SW 5,2 C -0,2 C 14,8 km/h
03.04.2010 12:00 13,6 C 64 % 1011,2 hPa 0,0 l/m 13,0 km/h SW 6,9 C 10,2 C 7,2 km/h
03.04.2010 13:00 15,8 C 55 % 1010,1 hPa 0,0 l/m 0,0 km/h W-NW 6,8 C 15,8 C 0,0 km/h
03.04.2010 14:00 15,6 C 53 % 1009,6 hPa 0,0 l/m 1,3 km/h S 6,1 C 15,6 C 0,7 km/h
03.04.2010 15:00 15,2 C 60 % 1009,1 hPa 0,0 l/m 21,4 km/h S-SO 7,5 C 9,7 C 11,9 km/h
03.04.2010 16:00 14,5 C 59 % 1008,1 hPa 0,0 l/m 6,5 km/h S 6,6 C 14,5 C 3,6 km/h
03.04.2010 17:00 11,1 C 76 % 1008,9 hPa 0,4 l/m 7,1 km/h SO 7,0 C 10,6 C 4,0 km/h
03.04.2010 18:00 12,4 C 72 % 1007,5 hPa 0,0 l/m 13,6 km/h S-SO 7,5 C 8,6 C 7,6 km/h
03.04.2010 19:00 11,4 C 65 % 1007,3 hPa 0,0 l/m 19,4 km/h S 5,1 C 5,3 C 10,8 km/h
03.04.2010 20:00 11,1 C 65 % 1007,4 hPa 0,0 l/m 9,7 km/h NW 4,8 C 9,0 C 5,4 km/h
03.04.2010 21:00 8,1 C 84 % 1009,2 hPa 0,0 l/m 3,2 km/h W 5,6 C 8,1 C 1,8 km/h
03.04.2010 22:00 6,8 C 87 % 1010,9 hPa 2,5 l/m 0,0 km/h SW 4,8 C 6,8 C 0,0 km/h
03.04.2010 23:00 6,6 C 90 % 1010,6 hPa 1,4 l/m 9,1 km/h S 5,1 C 4,5 C 5,0 km/h
04.04.2010 00:00 6,3 C 89 % 1010,4 hPa 0,7 l/m 0,0 km/h O 4,6 C 6,3 C 0,0 km/h
04.04.2010 01:00 5,9 C 89 % 1010,5 hPa 0,4 l/m 0,0 km/h O-NO 4,2 C 5,9 C 0,0 km/h
04.04.2010 02:00 5,8 C 91 % 1010,6 hPa 0,0 l/m 0,0 km/h O 4,4 C 5,8 C 0,0 km/h
04.04.2010 03:00 5,8 C 91 % 1010,3 hPa 0,0 l/m 0,0 km/h NO 4,4 C 5,8 C 0,0 km/h
04.04.2010 04:00 5,5 C 92 % 1010,1 hPa 0,0 l/m 0,0 km/h NO 4,3 C 5,5 C 0,0 km/h
04.04.2010 05:00 5,3 C 92 % 1010,3 hPa 0,0 l/m 0,0 km/h NO 4,1 C 5,3 C 0,0 km/h
04.04.2010 06:00 5,3 C 92 % 1010,6 hPa 0,0 l/m 0,0 km/h W-SW 4,1 C 5,3 C 0,0 km/h
04.04.2010 07:00 5,9 C 92 % 1011,2 hPa 0,0 l/m 1,3 km/h S 4,7 C 5,9 C 0,7 km/h
04.04.2010 08:00 8,3 C 82 % 1011,2 hPa 0,0 l/m 8,4 km/h W-SW 5,4 C 6,8 C 4,7 km/h
04.04.2010 09:00 9,9 C 73 % 1011,4 hPa 0,0 l/m 24,6 km/h W 5,3 C 1,8 C 13,7 km/h
04.04.2010 10:00 9,9 C 73 % 1011,9 hPa 0,0 l/m 14,3 km/h W-SW 5,3 C 5,3 C 7,9 km/h
04.04.2010 11:00 10,2 C 69 % 1012,6 hPa 0,0 l/m 50,5 km/h W 4,8 C -2,1 C 28,1 km/h
04.04.2010 12:00 11,8 C 65 % 1012,7 hPa 0,0 l/m 31,8 km/h SW 5,4 C 2,8 C 17,6 km/h
04.04.2010 13:00 13,4 C 62 % 1012,5 hPa 0,0 l/m 25,3 km/h W 6,3 C 6,4 C 14,0 km/h
04.04.2010 14:00 15,2 C 51 % 1012,7 hPa 0,0 l/m 51,2 km/h W 5,1 C 5,6 C 28,4 km/h
04.04.2010 15:00 13,3 C 55 % 1013,2 hPa 0,0 l/m 27,9 km/h W-SW 4,5 C 5,7 C 15,5 km/h
04.04.2010 16:00 13,0 C 61 % 1013,5 hPa 0,0 l/m 9,1 km/h N-NW 5,7 C 11,4 C 5,0 km/h
04.04.2010 17:00 11,9 C 54 % 1014,1 hPa 0,0 l/m 20,7 km/h N-NW 2,9 C 5,5 C 11,5 km/h
04.04.2010 18:00 13,6 C 49 % 1015,3 hPa 0,0 l/m 11,7 km/h W 3,1 C 10,8 C 6,5 km/h
04.04.2010 19:00 10,1 C 54 % 1015,8 hPa 0,0 l/m 0,0 km/h W 1,2 C 10,1 C 0,0 km/h
04.04.2010 20:00 5,6 C 70 % 1016,8 hPa 0,0 l/m 0,0 km/h NO 0,6 C 5,6 C 0,0 km/h
04.04.2010 21:00 5,5 C 76 % 1017,8 hPa 0,0 l/m 0,0 km/h NO 1,6 C 5,5 C 0,0 km/h
04.04.2010 22:00 5,3 C 79 % 1018,6 hPa 0,0 l/m 0,0 km/h N-NW 2,0 C 5,3 C 0,0 km/h
04.04.2010 23:00 6,7 C 76 % 1019,7 hPa 0,0 l/m 0,0 km/h N 2,8 C 6,7 C 0,0 km/h
Min-Datum _ 02.04.10 01.04.10 03.04.10 - 01.04.10 - 02.04.10 01.04.10 01.04.10
_ Min-Zeit 05:53 16:53 19:53 - 06:53 - 05:53 11:53 06:53
Minimum _ -1,5 C 43 % 1007,3 hPa - 0,0 km/h - -2,8 C -4,6 C 0,0 km/h
Max-Datum _ 02.04.10 02.04.10 04.04.10 01.04.10 04.04.10 - 03.04.10 03.04.10 04.04.10
_ Max-Zeit 16:53 08:53 23:53 06:53 14:53 - 18:53 13:53 14:53
Maximum _ 15,8 C 93 % 1019,7 hPa 3,6 l/m 51,2 km/h
W
- 7,5 C 15,8 C 28,4 km/h
W
Durchschnitt _ 8,1 C 73 % 1012,8 hPa #12,1 l/m 9,5 km/h W 3,1 C 5,5 C 5,3 km/h